Аэропорт: Курск-Восточный . Курск

ICAO: UUOK

METAR:
2022-01-28 08:30:00
UUOK 280830Z 18006MPS 150V210 3200 -SN OVC007 M04/M05 Q1006 R30/790130 TEMPO 0800 +SN -FZDZ OVC003 RMK QBB230 QFE736/0982
METAR:
Информация по данной станции не доступна